ARCT2: Red River, ARthur City

                                SHEF ID:       ARCT2     Red River at Arthur City, TX
STATION TYPE: Stream Gauge
Regulating: Stage = 27.00, Flow = 84609

PRECIP ELEVATION STAGE STAGE(2) RIV-FLOW BAT-LOAD
in ft ft ft cfs volt
Ccp-Rev Ccp-Rev Ccp-Rev Ccp-Rev Ccp-Rev Ccp-Rev
(America/Chicago)
03/19 00:00 0.00 ---- 4.30 ---- 1340 12.57
03/19 01:00 0.00 ---- 4.31 ---- 1350 12.49
03/19 02:00 0.00 ---- 4.30 ---- 1340 12.49
03/19 03:00 0.00 ---- 4.31 ---- 1350 12.49
03/19 04:00 0.00 ---- 4.31 ---- 1350 12.41
03/19 05:00 0.00 ---- 4.29 ---- 1330 12.41
03/19 06:00 0.00 ---- 4.27 ---- 1311 12.41
03/19 07:00 0.00 ---- 4.28 ---- 1321 12.41
03/19 08:00 0.00 ---- 4.28 ---- 1321 12.41
03/19 09:00 0.00 ---- 4.26 ---- 1301 12.65
03/19 10:00 0.00 ---- 4.24 ---- 1282 13.68
03/19 11:00 0.00 ---- 4.23 ---- 1273 14.40
03/19 12:00 0.00 ---- 4.23 ---- 1273 13.84
03/19 13:00 0.00 ---- 4.21 ---- 1254 14.00
03/19 14:00 0.00 ---- 4.20 ---- 1244 13.76
03/19 15:00 0.00 ---- 4.18 ---- 1226 13.68
03/19 16:00 0.00 ---- 4.18 ---- 1226 13.84
03/19 17:00 0.00 ---- 4.17 ---- 1216 13.60
03/19 18:00 0.00 ---- 4.16 ---- 1207 13.53
03/19 19:00 0.00 ---- 4.15 ---- 1198 13.44
03/19 20:00 0.00 ---- 4.16 ---- 1207 13.05
03/19 21:00 0.00 ---- 4.14 ---- 1189 12.65
03/19 22:00 0.00 ---- 4.14 ---- 1189 12.57
03/19 23:00 0.00 ---- 4.14 ---- 1189 12.57
Data processed at Fri 20Mar2026 04:30 GMT

NOTICE: If you are parsing this page

Please convert to using our Data API. Starting early 2026 we will be migrating to: https://water.usace.army.mil with modern pages rendered in JavaScript. When this migration completes you will no longer be able to scrape this page! CWMSDataAPI (CDA)

Timeseries IDs (TSIDs)

TSIDs used from left to right in the data table
ARTH.Precip-Inc.Total.1Hour.1Hour.Ccp-Rev
ARTH.Stage.Inst.1Hour.0.Ccp-Rev
ARTH.Stage-Alt.Inst.1Hour.0.Ccp-Rev
ARTH.Flow.Inst.1Hour.0.Ccp-Rev
ARTH.Volt-Battery Load.Inst.1Hour.0.Ccp-Rev

                            

All information presented herein is the property of the government of the United States of America and may be revised or deleted at any time without prior notice. Dissemination of this information without the expressed written consent of the Public Affairs Office, Tulsa District U.S. Army Corps of Engineers is strictly prohibited. These data are gathered electronically and, as presented, have NOT undergone any form of quality control. These data are NOT guaranteed to be valid or correct.